sensor_id;sensor_type;location;lat;lon;timestamp;P1;durP1;ratioP1;P2;durP2;ratioP2
37791;SDS011;29527;55.766;37.570;2023-03-14T00:00:13;3.83;;;1.95;;
37791;SDS011;29527;55.766;37.570;2023-03-14T00:02:39;5.05;;;2.20;;
37791;SDS011;29527;55.766;37.570;2023-03-14T00:05:05;3.97;;;2.47;;
37791;SDS011;29527;55.766;37.570;2023-03-14T00:07:35;5.90;;;2.70;;
37791;SDS011;29527;55.766;37.570;2023-03-14T00:10:03;4.32;;;2.42;;
37791;SDS011;29527;55.766;37.570;2023-03-14T00:12:30;6.72;;;3.00;;
37791;SDS011;29527;55.766;37.570;2023-03-14T00:14:56;6.68;;;2.72;;
37791;SDS011;29527;55.766;37.570;2023-03-14T00:17:21;5.93;;;2.85;;
37791;SDS011;29527;55.766;37.570;2023-03-14T00:19:47;7.25;;;3.30;;
37791;SDS011;29527;55.766;37.570;2023-03-14T00:22:17;6.10;;;3.55;;
37791;SDS011;29527;55.766;37.570;2023-03-14T00:24:42;6.80;;;3.00;;
37791;SDS011;29527;55.766;37.570;2023-03-14T00:27:08;7.30;;;2.90;;
37791;SDS011;29527;55.766;37.570;2023-03-14T00:29:33;6.95;;;3.47;;
37791;SDS011;29527;55.766;37.570;2023-03-14T00:31:59;8.70;;;2.90;;
37791;SDS011;29527;55.766;37.570;2023-03-14T00:34:28;6.72;;;3.00;;
37791;SDS011;29527;55.766;37.570;2023-03-14T00:36:54;6.07;;;3.03;;
37791;SDS011;29527;55.766;37.570;2023-03-14T00:39:19;11.52;;;3.45;;
37791;SDS011;29527;55.766;37.570;2023-03-14T00:41:45;9.38;;;3.10;;
37791;SDS011;29527;55.766;37.570;2023-03-14T00:44:10;10.45;;;3.25;;
37791;SDS011;29527;55.766;37.570;2023-03-14T00:46:36;5.90;;;2.72;;
37791;SDS011;29527;55.766;37.570;2023-03-14T00:49:01;4.20;;;2.80;;
37791;SDS011;29527;55.766;37.570;2023-03-14T00:51:27;7.85;;;3.15;;
37791;SDS011;29527;55.766;37.570;2023-03-14T00:53:52;6.38;;;3.20;;
37791;SDS011;29527;55.766;37.570;2023-03-14T00:56:18;5.50;;;2.78;;
37791;SDS011;29527;55.766;37.570;2023-03-14T00:58:43;7.80;;;3.00;;
37791;SDS011;29527;55.766;37.570;2023-03-14T01:01:10;6.22;;;2.70;;
37791;SDS011;29527;55.766;37.570;2023-03-14T01:03:43;7.23;;;2.83;;
37791;SDS011;29527;55.766;37.570;2023-03-14T01:06:10;6.10;;;3.05;;
37791;SDS011;29527;55.766;37.570;2023-03-14T01:08:37;5.07;;;3.15;;
37791;SDS011;29527;55.766;37.570;2023-03-14T01:11:07;6.47;;;3.05;;
37791;SDS011;29527;55.766;37.570;2023-03-14T01:13:34;8.90;;;2.88;;
37791;SDS011;29527;55.766;37.570;2023-03-14T01:16:01;7.68;;;3.10;;
37791;SDS011;29527;55.766;37.570;2023-03-14T01:18:28;5.57;;;2.40;;
37791;SDS011;29527;55.766;37.570;2023-03-14T01:20:53;7.05;;;3.03;;
37791;SDS011;29527;55.766;37.570;2023-03-14T01:23:19;5.38;;;3.13;;
37791;SDS011;29527;55.766;37.570;2023-03-14T01:25:44;6.32;;;2.97;;
37791;SDS011;29527;55.766;37.570;2023-03-14T01:28:09;5.47;;;3.03;;
37791;SDS011;29527;55.766;37.570;2023-03-14T01:30:35;5.40;;;3.15;;
37791;SDS011;29527;55.766;37.570;2023-03-14T01:33:00;5.22;;;2.97;;
37791;SDS011;29527;55.766;37.570;2023-03-14T01:35:26;3.75;;;2.60;;
37791;SDS011;29527;55.766;37.570;2023-03-14T01:37:51;3.88;;;2.10;;
37791;SDS011;29527;55.766;37.570;2023-03-14T01:40:17;4.97;;;2.88;;
37791;SDS011;29527;55.766;37.570;2023-03-14T01:42:46;5.93;;;3.00;;
37791;SDS011;29527;55.766;37.570;2023-03-14T01:48:24;5.40;;;2.83;;
37791;SDS011;29527;55.766;37.570;2023-03-14T01:50:53;4.95;;;3.00;;
37791;SDS011;29527;55.766;37.570;2023-03-14T01:53:19;4.38;;;2.80;;
37791;SDS011;29527;55.766;37.570;2023-03-14T01:55:47;5.28;;;2.65;;
37791;SDS011;29527;55.766;37.570;2023-03-14T01:58:13;7.25;;;3.17;;
37791;SDS011;29527;55.766;37.570;2023-03-14T02:00:40;5.55;;;3.03;;
37791;SDS011;29527;55.766;37.570;2023-03-14T02:03:10;4.93;;;3.20;;
37791;SDS011;29527;55.766;37.570;2023-03-14T02:05:41;6.53;;;3.03;;
37791;SDS011;29527;55.766;37.570;2023-03-14T02:08:08;8.02;;;3.88;;
37791;SDS011;29527;55.766;37.570;2023-03-14T02:10:40;6.43;;;3.53;;
37791;SDS011;29527;55.766;37.570;2023-03-14T02:13:08;4.60;;;2.70;;
37791;SDS011;29527;55.766;37.570;2023-03-14T02:15:35;7.30;;;3.15;;
37791;SDS011;29527;55.766;37.570;2023-03-14T02:18:03;5.85;;;3.50;;
37791;SDS011;29527;55.766;37.570;2023-03-14T02:20:41;4.57;;;2.90;;
37791;SDS011;29527;55.766;37.570;2023-03-14T02:23:13;7.22;;;3.67;;
37791;SDS011;29527;55.766;37.570;2023-03-14T02:26:15;5.15;;;3.10;;
37791;SDS011;29527;55.766;37.570;2023-03-14T02:28:54;6.38;;;3.60;;
37791;SDS011;29527;55.766;37.570;2023-03-14T02:31:19;6.10;;;3.30;;
37791;SDS011;29527;55.766;37.570;2023-03-14T02:33:47;9.23;;;3.67;;
37791;SDS011;29527;55.766;37.570;2023-03-14T02:36:13;6.47;;;3.58;;
37791;SDS011;29527;55.766;37.570;2023-03-14T02:41:21;6.32;;;3.78;;
37791;SDS011;29527;55.766;37.570;2023-03-14T02:43:47;5.97;;;3.78;;
37791;SDS011;29527;55.766;37.570;2023-03-14T02:46:14;6.47;;;4.20;;
37791;SDS011;29527;55.766;37.570;2023-03-14T02:48:56;5.22;;;3.83;;
37791;SDS011;29527;55.766;37.570;2023-03-14T02:51:26;5.65;;;3.30;;
37791;SDS011;29527;55.766;37.570;2023-03-14T02:53:52;5.75;;;3.65;;
37791;SDS011;29527;55.766;37.570;2023-03-14T02:56:18;5.57;;;3.75;;
37791;SDS011;29527;55.766;37.570;2023-03-14T02:58:43;6.75;;;3.92;;
37791;SDS011;29527;55.766;37.570;2023-03-14T03:01:09;4.93;;;3.67;;
37791;SDS011;29527;55.766;37.570;2023-03-14T03:03:34;5.45;;;4.00;;
37791;SDS011;29527;55.766;37.570;2023-03-14T03:06:00;5.28;;;4.07;;
37791;SDS011;29527;55.766;37.570;2023-03-14T03:08:26;8.48;;;4.28;;
37791;SDS011;29527;55.766;37.570;2023-03-14T03:10:52;4.72;;;3.80;;
37791;SDS011;29527;55.766;37.570;2023-03-14T03:13:18;8.45;;;3.70;;
37791;SDS011;29527;55.766;37.570;2023-03-14T03:15:44;6.90;;;4.43;;
37791;SDS011;29527;55.766;37.570;2023-03-14T03:18:10;7.03;;;4.53;;
37791;SDS011;29527;55.766;37.570;2023-03-14T03:20:36;7.35;;;4.43;;
37791;SDS011;29527;55.766;37.570;2023-03-14T03:23:02;6.70;;;4.40;;
37791;SDS011;29527;55.766;37.570;2023-03-14T03:25:27;6.50;;;4.38;;
37791;SDS011;29527;55.766;37.570;2023-03-14T03:27:54;5.57;;;4.05;;
37791;SDS011;29527;55.766;37.570;2023-03-14T03:30:19;6.95;;;3.97;;
37791;SDS011;29527;55.766;37.570;2023-03-14T03:32:45;5.63;;;4.32;;
37791;SDS011;29527;55.766;37.570;2023-03-14T03:35:11;5.85;;;4.32;;
37791;SDS011;29527;55.766;37.570;2023-03-14T03:37:36;6.00;;;4.07;;
37791;SDS011;29527;55.766;37.570;2023-03-14T03:40:02;8.77;;;4.32;;
37791;SDS011;29527;55.766;37.570;2023-03-14T03:42:31;5.90;;;4.65;;
37791;SDS011;29527;55.766;37.570;2023-03-14T03:44:58;6.20;;;4.30;;
37791;SDS011;29527;55.766;37.570;2023-03-14T03:47:24;6.90;;;4.40;;
37791;SDS011;29527;55.766;37.570;2023-03-14T03:49:50;8.40;;;4.53;;
37791;SDS011;29527;55.766;37.570;2023-03-14T03:52:15;8.70;;;4.80;;
37791;SDS011;29527;55.766;37.570;2023-03-14T03:54:41;8.57;;;4.80;;
37791;SDS011;29527;55.766;37.570;2023-03-14T03:57:06;6.13;;;4.18;;
37791;SDS011;29527;55.766;37.570;2023-03-14T03:59:32;8.65;;;4.80;;
37791;SDS011;29527;55.766;37.570;2023-03-14T04:01:57;8.13;;;4.95;;
37791;SDS011;29527;55.766;37.570;2023-03-14T04:04:23;5.30;;;4.50;;
37791;SDS011;29527;55.766;37.570;2023-03-14T04:06:48;5.65;;;4.28;;
37791;SDS011;29527;55.766;37.570;2023-03-14T04:09:13;6.75;;;4.63;;
37791;SDS011;29527;55.766;37.570;2023-03-14T04:11:39;6.65;;;4.80;;
37791;SDS011;29527;55.766;37.570;2023-03-14T04:14:05;6.80;;;4.22;;
37791;SDS011;29527;55.766;37.570;2023-03-14T04:16:30;8.52;;;4.53;;
37791;SDS011;29527;55.766;37.570;2023-03-14T04:18:59;5.28;;;4.35;;
37791;SDS011;29527;55.766;37.570;2023-03-14T04:21:25;9.27;;;4.68;;
37791;SDS011;29527;55.766;37.570;2023-03-14T04:23:51;7.90;;;4.65;;
37791;SDS011;29527;55.766;37.570;2023-03-14T04:26:16;7.18;;;4.90;;
37791;SDS011;29527;55.766;37.570;2023-03-14T04:28:43;6.30;;;4.40;;
37791;SDS011;29527;55.766;37.570;2023-03-14T04:31:10;9.95;;;4.57;;
37791;SDS011;29527;55.766;37.570;2023-03-14T04:33:37;6.57;;;4.35;;
37791;SDS011;29527;55.766;37.570;2023-03-14T04:36:04;6.18;;;4.35;;
37791;SDS011;29527;55.766;37.570;2023-03-14T04:38:30;8.57;;;4.97;;
37791;SDS011;29527;55.766;37.570;2023-03-14T04:40:56;6.93;;;4.68;;
37791;SDS011;29527;55.766;37.570;2023-03-14T04:43:22;8.23;;;5.00;;
37791;SDS011;29527;55.766;37.570;2023-03-14T04:45:47;8.43;;;4.97;;
37791;SDS011;29527;55.766;37.570;2023-03-14T04:48:13;8.07;;;4.85;;
37791;SDS011;29527;55.766;37.570;2023-03-14T04:50:38;8.05;;;4.78;;
37791;SDS011;29527;55.766;37.570;2023-03-14T04:53:04;8.82;;;4.95;;
37791;SDS011;29527;55.766;37.570;2023-03-14T04:55:30;7.90;;;4.88;;
37791;SDS011;29527;55.766;37.570;2023-03-14T04:57:57;9.63;;;4.93;;
37791;SDS011;29527;55.766;37.570;2023-03-14T05:00:23;6.18;;;4.63;;
37791;SDS011;29527;55.766;37.570;2023-03-14T05:02:48;9.93;;;4.65;;
37791;SDS011;29527;55.766;37.570;2023-03-14T05:05:14;8.32;;;4.45;;
37791;SDS011;29527;55.766;37.570;2023-03-14T05:07:39;10.18;;;5.00;;
37791;SDS011;29527;55.766;37.570;2023-03-14T05:10:05;6.40;;;4.80;;
37791;SDS011;29527;55.766;37.570;2023-03-14T05:12:30;7.38;;;5.10;;
37791;SDS011;29527;55.766;37.570;2023-03-14T05:14:56;8.25;;;5.00;;
37791;SDS011;29527;55.766;37.570;2023-03-14T05:17:21;8.43;;;4.93;;
37791;SDS011;29527;55.766;37.570;2023-03-14T05:19:47;8.13;;;4.82;;
37791;SDS011;29527;55.766;37.570;2023-03-14T05:22:12;6.70;;;4.63;;
37791;SDS011;29527;55.766;37.570;2023-03-14T05:24:38;10.50;;;5.18;;
37791;SDS011;29527;55.766;37.570;2023-03-14T05:27:04;9.98;;;4.95;;
37791;SDS011;29527;55.766;37.570;2023-03-14T05:29:29;8.70;;;4.90;;
37791;SDS011;29527;55.766;37.570;2023-03-14T05:31:55;6.40;;;4.22;;
37791;SDS011;29527;55.766;37.570;2023-03-14T05:34:20;6.85;;;4.35;;
37791;SDS011;29527;55.766;37.570;2023-03-14T05:36:46;7.97;;;4.38;;
37791;SDS011;29527;55.766;37.570;2023-03-14T05:39:11;8.30;;;4.90;;
37791;SDS011;29527;55.766;37.570;2023-03-14T05:41:37;7.90;;;4.65;;
37791;SDS011;29527;55.766;37.570;2023-03-14T05:44:03;8.70;;;4.70;;
37791;SDS011;29527;55.766;37.570;2023-03-14T05:46:28;7.97;;;4.70;;
37791;SDS011;29527;55.766;37.570;2023-03-14T05:48:56;6.93;;;4.35;;
37791;SDS011;29527;55.766;37.570;2023-03-14T05:51:22;7.57;;;4.50;;
37791;SDS011;29527;55.766;37.570;2023-03-14T05:53:48;7.65;;;4.50;;
37791;SDS011;29527;55.766;37.570;2023-03-14T05:56:13;8.02;;;4.13;;
37791;SDS011;29527;55.766;37.570;2023-03-14T05:58:39;10.23;;;4.88;;
37791;SDS011;29527;55.766;37.570;2023-03-14T06:01:04;9.10;;;4.70;;
37791;SDS011;29527;55.766;37.570;2023-03-14T06:03:31;12.18;;;4.60;;
37791;SDS011;29527;55.766;37.570;2023-03-14T06:05:57;9.18;;;4.72;;
37791;SDS011;29527;55.766;37.570;2023-03-14T06:08:23;10.82;;;4.47;;
37791;SDS011;29527;55.766;37.570;2023-03-14T06:10:48;10.20;;;4.43;;
37791;SDS011;29527;55.766;37.570;2023-03-14T06:13:14;9.63;;;4.43;;
37791;SDS011;29527;55.766;37.570;2023-03-14T06:15:40;9.30;;;4.95;;
37791;SDS011;29527;55.766;37.570;2023-03-14T06:18:06;6.90;;;3.97;;
37791;SDS011;29527;55.766;37.570;2023-03-14T06:20:32;9.30;;;4.40;;
37791;SDS011;29527;55.766;37.570;2023-03-14T06:22:58;8.63;;;4.60;;
37791;SDS011;29527;55.766;37.570;2023-03-14T06:25:23;8.02;;;4.55;;
37791;SDS011;29527;55.766;37.570;2023-03-14T06:27:49;6.75;;;4.35;;
37791;SDS011;29527;55.766;37.570;2023-03-14T06:30:14;5.63;;;4.40;;
37791;SDS011;29527;55.766;37.570;2023-03-14T06:32:40;9.35;;;4.10;;
37791;SDS011;29527;55.766;37.570;2023-03-14T06:35:05;8.57;;;4.43;;
37791;SDS011;29527;55.766;37.570;2023-03-14T06:37:31;7.75;;;4.32;;
37791;SDS011;29527;55.766;37.570;2023-03-14T06:39:56;6.82;;;4.30;;
37791;SDS011;29527;55.766;37.570;2023-03-14T06:42:22;7.10;;;4.28;;
37791;SDS011;29527;55.766;37.570;2023-03-14T06:44:48;6.78;;;4.30;;
37791;SDS011;29527;55.766;37.570;2023-03-14T06:47:13;7.13;;;4.28;;
37791;SDS011;29527;55.766;37.570;2023-03-14T06:49:39;6.60;;;3.85;;
37791;SDS011;29527;55.766;37.570;2023-03-14T06:52:04;8.35;;;3.90;;
37791;SDS011;29527;55.766;37.570;2023-03-14T06:54:30;10.15;;;4.50;;
37791;SDS011;29527;55.766;37.570;2023-03-14T06:56:55;6.45;;;3.95;;
37791;SDS011;29527;55.766;37.570;2023-03-14T06:59:21;6.05;;;3.85;;
37791;SDS011;29527;55.766;37.570;2023-03-14T07:01:46;8.57;;;3.92;;
37791;SDS011;29527;55.766;37.570;2023-03-14T07:04:13;8.05;;;4.00;;
37791;SDS011;29527;55.766;37.570;2023-03-14T07:06:38;6.82;;;4.03;;
37791;SDS011;29527;55.766;37.570;2023-03-14T07:09:04;9.32;;;3.92;;
37791;SDS011;29527;55.766;37.570;2023-03-14T07:11:30;8.35;;;4.47;;
37791;SDS011;29527;55.766;37.570;2023-03-14T07:13:56;9.25;;;3.63;;
37791;SDS011;29527;55.766;37.570;2023-03-14T07:16:22;11.40;;;4.20;;
37791;SDS011;29527;55.766;37.570;2023-03-14T07:18:47;7.30;;;3.80;;
37791;SDS011;29527;55.766;37.570;2023-03-14T07:21:14;11.02;;;4.30;;
37791;SDS011;29527;55.766;37.570;2023-03-14T07:23:39;7.40;;;3.90;;
37791;SDS011;29527;55.766;37.570;2023-03-14T07:26:05;7.50;;;3.80;;
37791;SDS011;29527;55.766;37.570;2023-03-14T07:28:31;7.63;;;3.88;;
37791;SDS011;29527;55.766;37.570;2023-03-14T07:30:56;11.23;;;4.18;;
37791;SDS011;29527;55.766;37.570;2023-03-14T07:33:22;10.20;;;4.20;;
37791;SDS011;29527;55.766;37.570;2023-03-14T07:35:47;10.13;;;3.67;;
37791;SDS011;29527;55.766;37.570;2023-03-14T07:38:14;10.43;;;4.18;;
37791;SDS011;29527;55.766;37.570;2023-03-14T07:40:40;7.70;;;4.10;;
37791;SDS011;29527;55.766;37.570;2023-03-14T07:43:05;7.65;;;4.03;;
37791;SDS011;29527;55.766;37.570;2023-03-14T07:45:31;9.27;;;4.53;;
37791;SDS011;29527;55.766;37.570;2023-03-14T07:47:57;7.18;;;4.13;;
37791;SDS011;29527;55.766;37.570;2023-03-14T07:50:23;6.57;;;4.00;;
37791;SDS011;29527;55.766;37.570;2023-03-14T07:52:49;6.72;;;3.60;;
37791;SDS011;29527;55.766;37.570;2023-03-14T07:55:15;8.00;;;3.85;;
37791;SDS011;29527;55.766;37.570;2023-03-14T07:57:40;6.15;;;4.10;;
37791;SDS011;29527;55.766;37.570;2023-03-14T08:00:06;8.07;;;4.22;;
37791;SDS011;29527;55.766;37.570;2023-03-14T08:02:32;10.82;;;4.25;;
37791;SDS011;29527;55.766;37.570;2023-03-14T08:04:58;9.23;;;4.40;;
37791;SDS011;29527;55.766;37.570;2023-03-14T08:07:23;7.57;;;4.20;;
37791;SDS011;29527;55.766;37.570;2023-03-14T08:09:49;4.82;;;3.30;;
37791;SDS011;29527;55.766;37.570;2023-03-14T08:12:14;10.77;;;3.75;;
37791;SDS011;29527;55.766;37.570;2023-03-14T08:14:41;8.35;;;4.32;;
37791;SDS011;29527;55.766;37.570;2023-03-14T08:17:07;6.53;;;3.78;;
37791;SDS011;29527;55.766;37.570;2023-03-14T08:19:33;7.03;;;3.60;;
37791;SDS011;29527;55.766;37.570;2023-03-14T08:21:58;8.45;;;4.22;;
37791;SDS011;29527;55.766;37.570;2023-03-14T08:24:24;8.20;;;3.92;;
37791;SDS011;29527;55.766;37.570;2023-03-14T08:26:50;8.93;;;4.13;;
37791;SDS011;29527;55.766;37.570;2023-03-14T08:29:15;7.53;;;4.13;;
37791;SDS011;29527;55.766;37.570;2023-03-14T08:31:40;11.57;;;4.22;;
37791;SDS011;29527;55.766;37.570;2023-03-14T08:34:06;10.88;;;4.65;;
37791;SDS011;29527;55.766;37.570;2023-03-14T08:36:32;8.25;;;4.13;;
37791;SDS011;29527;55.766;37.570;2023-03-14T08:38:58;8.50;;;4.72;;
37791;SDS011;29527;55.766;37.570;2023-03-14T08:41:24;8.93;;;4.50;;
37791;SDS011;29527;55.766;37.570;2023-03-14T08:43:50;7.78;;;4.65;;
37791;SDS011;29527;55.766;37.570;2023-03-14T08:46:15;9.18;;;4.68;;
37791;SDS011;29527;55.766;37.570;2023-03-14T08:48:40;8.35;;;4.57;;
37791;SDS011;29527;55.766;37.570;2023-03-14T08:51:06;9.63;;;5.00;;
37791;SDS011;29527;55.766;37.570;2023-03-14T08:53:39;8.65;;;4.68;;
37791;SDS011;29527;55.766;37.570;2023-03-14T08:56:05;9.55;;;5.60;;
37791;SDS011;29527;55.766;37.570;2023-03-14T08:58:31;10.10;;;4.90;;
37791;SDS011;29527;55.766;37.570;2023-03-14T09:00:58;6.80;;;4.68;;
37791;SDS011;29527;55.766;37.570;2023-03-14T09:03:24;10.82;;;5.03;;
37791;SDS011;29527;55.766;37.570;2023-03-14T09:05:50;9.65;;;5.25;;
37791;SDS011;29527;55.766;37.570;2023-03-14T09:08:16;11.05;;;4.97;;
37791;SDS011;29527;55.766;37.570;2023-03-14T09:10:42;12.38;;;5.35;;
37791;SDS011;29527;55.766;37.570;2023-03-14T09:13:07;7.45;;;4.70;;
37791;SDS011;29527;55.766;37.570;2023-03-14T09:15:32;7.82;;;4.30;;
37791;SDS011;29527;55.766;37.570;2023-03-14T09:17:58;8.50;;;4.65;;
37791;SDS011;29527;55.766;37.570;2023-03-14T09:20:24;10.15;;;4.85;;
37791;SDS011;29527;55.766;37.570;2023-03-14T09:22:49;7.78;;;4.25;;
37791;SDS011;29527;55.766;37.570;2023-03-14T09:25:15;7.43;;;3.88;;
37791;SDS011;29527;55.766;37.570;2023-03-14T09:27:41;6.70;;;4.20;;
37791;SDS011;29527;55.766;37.570;2023-03-14T09:30:06;5.88;;;4.28;;
37791;SDS011;29527;55.766;37.570;2023-03-14T09:32:32;9.77;;;4.55;;
37791;SDS011;29527;55.766;37.570;2023-03-14T09:34:58;11.07;;;4.60;;
37791;SDS011;29527;55.766;37.570;2023-03-14T09:37:23;8.27;;;4.57;;
37791;SDS011;29527;55.766;37.570;2023-03-14T09:39:49;11.18;;;4.72;;
37791;SDS011;29527;55.766;37.570;2023-03-14T09:42:16;9.95;;;4.78;;
37791;SDS011;29527;55.766;37.570;2023-03-14T09:47:18;7.03;;;4.22;;
37791;SDS011;29527;55.766;37.570;2023-03-14T09:49:45;11.80;;;4.60;;
37791;SDS011;29527;55.766;37.570;2023-03-14T09:52:15;11.20;;;4.95;;
37791;SDS011;29527;55.766;37.570;2023-03-14T09:54:46;8.30;;;4.40;;
37791;SDS011;29527;55.766;37.570;2023-03-14T09:57:16;9.75;;;4.53;;
37791;SDS011;29527;55.766;37.570;2023-03-14T09:59:46;8.13;;;4.85;;
37791;SDS011;29527;55.766;37.570;2023-03-14T10:02:20;7.72;;;4.20;;
37791;SDS011;29527;55.766;37.570;2023-03-14T10:04:49;8.85;;;4.65;;
37791;SDS011;29527;55.766;37.570;2023-03-14T10:07:17;9.00;;;3.72;;
37791;SDS011;29527;55.766;37.570;2023-03-14T10:09:49;9.90;;;4.80;;
37791;SDS011;29527;55.766;37.570;2023-03-14T10:12:16;10.43;;;4.50;;
37791;SDS011;29527;55.766;37.570;2023-03-14T10:14:47;11.40;;;4.95;;
37791;SDS011;29527;55.766;37.570;2023-03-14T10:17:15;8.00;;;4.50;;
37791;SDS011;29527;55.766;37.570;2023-03-14T10:19:55;13.25;;;4.90;;
37791;SDS011;29527;55.766;37.570;2023-03-14T10:22:26;7.05;;;4.82;;
37791;SDS011;29527;55.766;37.570;2023-03-14T10:24:56;6.20;;;4.40;;
37791;SDS011;29527;55.766;37.570;2023-03-14T10:27:29;8.75;;;4.32;;
37791;SDS011;29527;55.766;37.570;2023-03-14T10:30:04;9.10;;;5.00;;
37791;SDS011;29527;55.766;37.570;2023-03-14T10:32:33;10.93;;;5.07;;
37791;SDS011;29527;55.766;37.570;2023-03-14T10:37:47;12.55;;;5.10;;
37791;SDS011;29527;55.766;37.570;2023-03-14T10:40:28;10.10;;;5.00;;
37791;SDS011;29527;55.766;37.570;2023-03-14T10:42:59;8.10;;;4.43;;
37791;SDS011;29527;55.766;37.570;2023-03-14T10:45:31;10.60;;;5.05;;
37791;SDS011;29527;55.766;37.570;2023-03-14T10:50:39;11.20;;;4.82;;
37791;SDS011;29527;55.766;37.570;2023-03-14T10:53:16;8.45;;;4.63;;
37791;SDS011;29527;55.766;37.570;2023-03-14T10:55:43;8.88;;;4.65;;
37791;SDS011;29527;55.766;37.570;2023-03-14T10:58:29;6.97;;;4.60;;
37791;SDS011;29527;55.766;37.570;2023-03-14T11:01:05;7.43;;;4.80;;
37791;SDS011;29527;55.766;37.570;2023-03-14T11:03:32;7.85;;;4.60;;
37791;SDS011;29527;55.766;37.570;2023-03-14T11:09:11;7.72;;;4.90;;
37791;SDS011;29527;55.766;37.570;2023-03-14T11:11:41;7.70;;;4.28;;
37791;SDS011;29527;55.766;37.570;2023-03-14T11:22:39;6.43;;;4.18;;
37791;SDS011;29527;55.766;37.570;2023-03-14T11:27:48;7.35;;;4.90;;
37791;SDS011;29527;55.766;37.570;2023-03-14T11:31:20;7.78;;;4.22;;
37791;SDS011;29527;55.766;37.570;2023-03-14T11:33:16;8.15;;;4.05;;
37791;SDS011;29527;55.766;37.570;2023-03-14T11:41:00;9.82;;;4.78;;
37791;SDS011;29527;55.766;37.570;2023-03-14T11:43:28;8.30;;;4.70;;
37791;SDS011;29527;55.766;37.570;2023-03-14T11:46:08;8.25;;;4.68;;
37791;SDS011;29527;55.766;37.570;2023-03-14T11:48:45;10.18;;;5.07;;
37791;SDS011;29527;55.766;37.570;2023-03-14T11:51:34;9.27;;;4.82;;
37791;SDS011;29527;55.766;37.570;2023-03-14T11:54:16;11.20;;;4.30;;
37791;SDS011;29527;55.766;37.570;2023-03-14T11:59:27;9.15;;;5.03;;
37791;SDS011;29527;55.766;37.570;2023-03-14T12:02:03;8.75;;;4.53;;
37791;SDS011;29527;55.766;37.570;2023-03-14T12:07:20;9.30;;;4.65;;
37791;SDS011;29527;55.766;37.570;2023-03-14T12:09:49;7.57;;;4.30;;
37791;SDS011;29527;55.766;37.570;2023-03-14T12:12:19;9.05;;;4.60;;
37791;SDS011;29527;55.766;37.570;2023-03-14T12:14:53;6.22;;;4.38;;
37791;SDS011;29527;55.766;37.570;2023-03-14T12:17:41;6.25;;;4.30;;
37791;SDS011;29527;55.766;37.570;2023-03-14T12:22:43;7.72;;;4.70;;
37791;SDS011;29527;55.766;37.570;2023-03-14T12:35:46;8.13;;;4.45;;
37791;SDS011;29527;55.766;37.570;2023-03-14T12:38:15;8.90;;;4.50;;
37791;SDS011;29527;55.766;37.570;2023-03-14T12:43:45;10.45;;;4.95;;
37791;SDS011;29527;55.766;37.570;2023-03-14T12:49:24;6.97;;;4.80;;
37791;SDS011;29527;55.766;37.570;2023-03-14T12:56:49;8.80;;;4.57;;
37791;SDS011;29527;55.766;37.570;2023-03-14T12:59:28;7.65;;;4.80;;
37791;SDS011;29527;55.766;37.570;2023-03-14T13:01:58;8.27;;;4.63;;
37791;SDS011;29527;55.766;37.570;2023-03-14T13:04:50;6.75;;;4.50;;
37791;SDS011;29527;55.766;37.570;2023-03-14T13:10:16;6.85;;;4.30;;
37791;SDS011;29527;55.766;37.570;2023-03-14T13:13:11;6.80;;;4.40;;
37791;SDS011;29527;55.766;37.570;2023-03-14T13:15:47;7.95;;;4.82;;
37791;SDS011;29527;55.766;37.570;2023-03-14T13:18:17;9.77;;;4.55;;
37791;SDS011;29527;55.766;37.570;2023-03-14T13:20:55;13.10;;;4.70;;
37791;SDS011;29527;55.766;37.570;2023-03-14T13:23:25;7.93;;;4.38;;
37791;SDS011;29527;55.766;37.570;2023-03-14T13:25:52;9.57;;;4.60;;
37791;SDS011;29527;55.766;37.570;2023-03-14T13:28:19;8.07;;;4.35;;
37791;SDS011;29527;55.766;37.570;2023-03-14T13:30:49;7.95;;;4.38;;
37791;SDS011;29527;55.766;37.570;2023-03-14T13:33:20;11.50;;;4.47;;
37791;SDS011;29527;55.766;37.570;2023-03-14T13:35:49;7.97;;;4.90;;
37791;SDS011;29527;55.766;37.570;2023-03-14T13:38:20;7.63;;;4.90;;
37791;SDS011;29527;55.766;37.570;2023-03-14T13:40:48;6.95;;;4.15;;
37791;SDS011;29527;55.766;37.570;2023-03-14T13:45:44;7.45;;;4.00;;
37791;SDS011;29527;55.766;37.570;2023-03-14T13:48:21;7.78;;;4.22;;
37791;SDS011;29527;55.766;37.570;2023-03-14T13:50:54;9.85;;;4.43;;
37791;SDS011;29527;55.766;37.570;2023-03-14T13:53:22;9.13;;;4.47;;
37791;SDS011;29527;55.766;37.570;2023-03-14T13:55:48;12.57;;;4.75;;
37791;SDS011;29527;55.766;37.570;2023-03-14T13:58:28;5.88;;;3.95;;
37791;SDS011;29527;55.766;37.570;2023-03-14T14:00:56;6.03;;;3.60;;
37791;SDS011;29527;55.766;37.570;2023-03-14T14:03:24;7.40;;;4.43;;
37791;SDS011;29527;55.766;37.570;2023-03-14T14:05:51;10.88;;;4.18;;
37791;SDS011;29527;55.766;37.570;2023-03-14T14:08:16;8.48;;;4.28;;
37791;SDS011;29527;55.766;37.570;2023-03-14T14:10:42;7.90;;;4.20;;
37791;SDS011;29527;55.766;37.570;2023-03-14T14:13:12;6.03;;;4.10;;
37791;SDS011;29527;55.766;37.570;2023-03-14T14:15:44;9.20;;;4.80;;
37791;SDS011;29527;55.766;37.570;2023-03-14T14:18:14;8.82;;;4.60;;
37791;SDS011;29527;55.766;37.570;2023-03-14T14:20:44;11.48;;;4.75;;
37791;SDS011;29527;55.766;37.570;2023-03-14T14:23:15;7.00;;;4.50;;
37791;SDS011;29527;55.766;37.570;2023-03-14T14:25:50;6.85;;;4.15;;
37791;SDS011;29527;55.766;37.570;2023-03-14T14:28:24;7.80;;;4.72;;
37791;SDS011;29527;55.766;37.570;2023-03-14T14:33:42;7.28;;;4.72;;
37791;SDS011;29527;55.766;37.570;2023-03-14T14:36:21;8.32;;;4.88;;
37791;SDS011;29527;55.766;37.570;2023-03-14T14:39:15;6.82;;;4.40;;
37791;SDS011;29527;55.766;37.570;2023-03-14T14:41:44;9.20;;;4.50;;
37791;SDS011;29527;55.766;37.570;2023-03-14T14:44:16;9.30;;;4.30;;
37791;SDS011;29527;55.766;37.570;2023-03-14T14:46:43;6.82;;;4.60;;
37791;SDS011;29527;55.766;37.570;2023-03-14T14:49:10;7.75;;;4.22;;
37791;SDS011;29527;55.766;37.570;2023-03-14T14:51:43;6.10;;;4.13;;
37791;SDS011;29527;55.766;37.570;2023-03-14T14:54:14;8.98;;;4.13;;
37791;SDS011;29527;55.766;37.570;2023-03-14T14:56:40;7.35;;;4.22;;
37791;SDS011;29527;55.766;37.570;2023-03-14T14:59:06;7.85;;;4.82;;
37791;SDS011;29527;55.766;37.570;2023-03-14T15:01:43;7.75;;;4.35;;
37791;SDS011;29527;55.766;37.570;2023-03-14T15:04:13;6.80;;;4.40;;
37791;SDS011;29527;55.766;37.570;2023-03-14T15:06:42;7.38;;;4.72;;
37791;SDS011;29527;55.766;37.570;2023-03-14T15:09:10;8.88;;;4.70;;
37791;SDS011;29527;55.766;37.570;2023-03-14T15:11:36;6.80;;;4.30;;
37791;SDS011;29527;55.766;37.570;2023-03-14T15:14:02;4.88;;;3.95;;
37791;SDS011;29527;55.766;37.570;2023-03-14T15:16:29;8.23;;;5.03;;
37791;SDS011;29527;55.766;37.570;2023-03-14T15:18:57;7.60;;;4.22;;
37791;SDS011;29527;55.766;37.570;2023-03-14T15:21:25;7.22;;;4.28;;
37791;SDS011;29527;55.766;37.570;2023-03-14T15:23:52;7.18;;;4.20;;
37791;SDS011;29527;55.766;37.570;2023-03-14T15:26:21;7.18;;;4.10;;
37791;SDS011;29527;55.766;37.570;2023-03-14T15:28:49;7.97;;;4.20;;
37791;SDS011;29527;55.766;37.570;2023-03-14T15:31:15;5.88;;;4.07;;
37791;SDS011;29527;55.766;37.570;2023-03-14T15:33:42;6.35;;;4.30;;
37791;SDS011;29527;55.766;37.570;2023-03-14T15:36:23;7.10;;;4.38;;
37791;SDS011;29527;55.766;37.570;2023-03-14T15:38:51;8.43;;;5.35;;
37791;SDS011;29527;55.766;37.570;2023-03-14T15:41:17;7.63;;;4.50;;
37791;SDS011;29527;55.766;37.570;2023-03-14T15:43:44;6.28;;;4.70;;
37791;SDS011;29527;55.766;37.570;2023-03-14T15:46:10;5.90;;;4.07;;
37791;SDS011;29527;55.766;37.570;2023-03-14T15:48:36;7.35;;;4.40;;